createdAt,value
2017-10-15T00:01:06.440Z,47.07
2017-10-15T00:02:15.474Z,46.59
2017-10-15T00:03:24.502Z,46.59
2017-10-15T00:04:33.525Z,46.78
2017-10-15T00:05:42.552Z,46.88
2017-10-15T00:06:51.920Z,46.69
2017-10-15T00:08:00.949Z,46.88
2017-10-15T00:09:10.318Z,47.17
2017-10-15T00:10:20.007Z,46.88
2017-10-15T00:11:29.034Z,46.88
2017-10-15T00:12:38.073Z,46.59
2017-10-15T00:13:47.101Z,46.49
2017-10-15T00:14:56.466Z,46.49
2017-10-15T00:16:06.162Z,46.49
2017-10-15T00:17:14.867Z,46.2
2017-10-15T00:18:25.224Z,46.49
2017-10-15T00:19:34.584Z,46.49
2017-10-15T00:20:43.615Z,46.3
2017-10-15T00:21:52.981Z,46.11
2017-10-15T00:23:02.361Z,46.4
2017-10-15T00:24:11.391Z,46.3
2017-10-15T00:25:20.418Z,46.4
2017-10-15T00:26:29.114Z,46.3
2017-10-15T00:27:38.489Z,46.2
2017-10-15T00:28:47.856Z,46.4
2017-10-15T00:29:57.542Z,46.3
2017-10-15T00:31:06.916Z,46.4
2017-10-15T00:32:15.607Z,46.3
2017-10-15T00:33:24.963Z,46.3
2017-10-15T00:34:33.993Z,46.4
2017-10-15T00:35:43.365Z,46.3
2017-10-15T00:36:52.735Z,46.2
2017-10-15T00:38:01.764Z,46.4
2017-10-15T00:39:11.467Z,46.4
2017-10-15T00:40:20.171Z,46.4
2017-10-15T00:41:28.871Z,46.2
2017-10-15T00:42:37.898Z,46.3
2017-10-15T00:43:46.933Z,46.3
2017-10-15T00:44:55.965Z,46.3
2017-10-15T00:46:05.022Z,46.49
2017-10-15T00:47:14.394Z,46.4
2017-10-15T00:48:23.422Z,46.2
2017-10-15T00:49:32.455Z,45.92
2017-10-15T00:50:41.491Z,45.92
2017-10-15T00:51:50.854Z,45.82
2017-10-15T00:52:59.557Z,45.82
2017-10-15T00:54:08.925Z,46.01
2017-10-15T00:55:17.619Z,45.92
2017-10-15T00:56:27.347Z,45.82
2017-10-15T00:57:36.379Z,45.82
2017-10-15T00:58:45.740Z,46.11
2017-10-15T00:59:55.098Z,46.01
2017-10-15T01:01:03.797Z,45.92
2017-10-15T01:02:12.821Z,45.92
2017-10-15T01:03:21.896Z,45.92
2017-10-15T01:04:30.917Z,46.2
2017-10-15T01:05:40.281Z,45.82
2017-10-15T01:06:49.314Z,46.01
2017-10-15T01:07:58.012Z,46.01
2017-10-15T01:09:07.714Z,46.01
2017-10-15T01:10:17.080Z,46.01
2017-10-15T01:11:26.770Z,46.4
2017-10-15T01:12:36.134Z,46.2
2017-10-15T01:13:45.168Z,46.11
2017-10-15T01:14:53.869Z,46.11
2017-10-15T01:16:02.570Z,46.11
2017-10-15T01:17:11.268Z,46.11
2017-10-15T01:18:20.638Z,46.11
2017-10-15T01:19:29.997Z,45.92
2017-10-15T01:20:38.701Z,46.2
2017-10-15T01:21:48.405Z,46.01
2017-10-15T01:22:57.781Z,45.82
2017-10-15T01:24:06.811Z,46.2
2017-10-15T01:25:15.846Z,46.01
2017-10-15T01:26:24.544Z,45.43
2017-10-15T01:27:33.907Z,46.3
2017-10-15T01:28:42.938Z,46.2
2017-10-15T01:29:51.966Z,46.01
2017-10-15T01:31:01.335Z,46.11
2017-10-15T01:32:10.699Z,46.11
2017-10-15T01:33:20.059Z,45.92
2017-10-15T01:34:29.097Z,46.4
2017-10-15T01:35:38.466Z,45.92
2017-10-15T01:36:47.835Z,45.82
2017-10-15T01:37:57.192Z,46.4
2017-10-15T01:39:06.555Z,46.2
2017-10-15T01:40:15.592Z,46.47
2017-10-15T01:41:25.276Z,46.47
2017-10-15T01:42:33.973Z,46.08
2017-10-15T01:43:43.670Z,46.56
2017-10-15T01:44:52.703Z,46.28
2017-10-15T01:46:01.401Z,46.37
2017-10-15T01:47:10.432Z,45.99
2017-10-15T01:48:19.800Z,46.01
2017-10-15T01:49:29.160Z,45.89
2017-10-15T01:50:38.186Z,46.47
2017-10-15T01:51:47.219Z,46.11
2017-10-15T01:52:56.249Z,46.47
2017-10-15T01:54:05.277Z,46.37
2017-10-15T01:55:14.320Z,46.37
2017-10-15T01:56:23.347Z,46.28
2017-10-15T01:57:32.045Z,46.47
2017-10-15T01:58:41.075Z,46.18
2017-10-15T01:59:50.440Z,46.28
2017-10-15T02:00:59.470Z,46.28
2017-10-15T02:02:08.830Z,46.08
2017-10-15T02:03:18.195Z,46.37
2017-10-15T02:04:27.892Z,46.66
2017-10-15T02:05:37.933Z,45.99
2017-10-15T02:06:47.301Z,45.89
2017-10-15T02:07:56.672Z,45.89
2017-10-15T02:09:06.043Z,45.79
2017-10-15T02:10:15.399Z,45.99
2017-10-15T02:11:24.434Z,46.08
2017-10-15T02:12:33.131Z,46.08
2017-10-15T02:13:42.157Z,45.79
2017-10-15T02:14:51.194Z,46.11
2017-10-15T02:16:00.226Z,45.89
2017-10-15T02:17:08.923Z,45.89
2017-10-15T02:18:17.952Z,45.89
2017-10-15T02:19:26.650Z,45.7
2017-10-15T02:20:36.018Z,45.89
2017-10-15T02:21:45.711Z,45.99
2017-10-15T02:22:54.406Z,45.89
2017-10-15T02:24:03.770Z,45.89
2017-10-15T02:25:13.131Z,46.56
2017-10-15T02:26:22.160Z,46.37
2017-10-15T02:27:31.193Z,46.47
2017-10-15T02:28:40.884Z,45.99
2017-10-15T02:29:49.578Z,45.99
2017-10-15T02:30:58.271Z,45.89
2017-10-15T02:32:07.641Z,46.08
2017-10-15T02:33:16.684Z,46.37
2017-10-15T02:34:25.383Z,46.37
2017-10-15T02:35:34.419Z,46.28
2017-10-15T02:36:44.456Z,46.47
2017-10-15T02:37:53.489Z,46.37
2017-10-15T02:39:02.194Z,46.37
2017-10-15T02:40:11.893Z,46.28
2017-10-15T02:41:20.921Z,46.37
2017-10-15T02:42:30.281Z,46.37
2017-10-15T02:43:39.995Z,45.89
2017-10-15T02:44:49.352Z,45.89
2017-10-15T02:45:58.714Z,45.79
2017-10-15T02:47:07.411Z,45.89
2017-10-15T02:48:16.441Z,45.7
2017-10-15T02:49:25.132Z,45.51
2017-10-15T02:50:34.491Z,45.89
2017-10-15T02:51:43.852Z,45.99
2017-10-15T02:52:52.552Z,45.99
2017-10-15T02:54:02.256Z,45.6
2017-10-15T02:55:11.952Z,46.08
2017-10-15T02:56:20.651Z,46.37
2017-10-15T02:57:29.351Z,46.28
2017-10-15T02:58:38.058Z,46.28
2017-10-15T02:59:47.093Z,46.28
2017-10-15T03:00:56.794Z,46.28
2017-10-15T03:02:05.819Z,46.28
2017-10-15T03:03:15.522Z,46.28
2017-10-15T03:04:24.566Z,46.56
2017-10-15T03:05:33.925Z,46.37
2017-10-15T03:06:42.953Z,46.28
2017-10-15T03:07:51.986Z,46.47
2017-10-15T03:09:01.008Z,46.25
2017-10-15T03:10:10.366Z,46.18
2017-10-15T03:11:19.392Z,46.35
2017-10-15T03:12:28.762Z,46.35
2017-10-15T03:13:37.793Z,46.25
2017-10-15T03:14:47.485Z,46.15
2017-10-15T03:15:56.183Z,46.35
2017-10-15T03:17:04.885Z,46.35
2017-10-15T03:18:14.252Z,46.25
2017-10-15T03:19:23.608Z,46.18
2017-10-15T03:20:32.639Z,46.35
2017-10-15T03:21:42.343Z,46.25
2017-10-15T03:22:52.038Z,46.25
2017-10-15T03:24:01.397Z,46.35
2017-10-15T03:25:10.762Z,46.35
2017-10-15T03:26:19.793Z,46.55
2017-10-15T03:27:28.826Z,46.15
2017-10-15T03:28:38.523Z,46.15
2017-10-15T03:29:47.219Z,46.25
2017-10-15T03:30:57.249Z,46.35
2017-10-15T03:32:06.282Z,46.37
2017-10-15T03:33:15.987Z,46.45
2017-10-15T03:34:24.687Z,46.55
2017-10-15T03:35:34.383Z,45.99
2017-10-15T03:36:43.077Z,46.08
2017-10-15T03:37:51.775Z,45.99
2017-10-15T03:39:00.815Z,45.89
2017-10-15T03:40:09.857Z,46.08
2017-10-15T03:41:18.876Z,45.99
2017-10-15T03:42:27.915Z,46.08
2017-10-15T03:43:36.616Z,46.18
2017-10-15T03:44:45.646Z,46.18
2017-10-15T03:45:55.018Z,46.28
2017-10-15T03:47:04.048Z,45.51
2017-10-15T03:48:12.742Z,45.79
2017-10-15T03:49:21.772Z,45.79
2017-10-15T03:50:31.137Z,46.08
2017-10-15T03:51:40.171Z,45.6
2017-10-15T03:52:48.867Z,45.6
2017-10-15T03:53:58.254Z,45.7
2017-10-15T03:55:06.955Z,45.51
2017-10-15T03:56:16.319Z,45.79
2017-10-15T03:57:25.354Z,45.6
2017-10-15T03:58:34.390Z,45.51
2017-10-15T03:59:44.085Z,45.6
2017-10-15T04:00:53.450Z,45.6
2017-10-15T04:02:02.481Z,45.6
2017-10-15T04:03:12.180Z,45.79
2017-10-15T04:04:21.211Z,45.7
2017-10-15T04:05:30.901Z,45.7
2017-10-15T04:06:40.260Z,45.6
2017-10-15T04:07:48.956Z,45.7
2017-10-15T04:08:57.990Z,45.6
2017-10-15T04:10:07.027Z,45.7
2017-10-15T04:11:15.721Z,45.79
2017-10-15T04:12:25.081Z,45.6
2017-10-15T04:13:34.443Z,45.51
2017-10-15T04:14:43.812Z,45.51
2017-10-15T04:15:52.844Z,45.7
2017-10-15T04:17:01.894Z,45.6
2017-10-15T04:18:10.918Z,45.7
2017-10-15T04:19:19.948Z,45.79
2017-10-15T04:20:29.315Z,45.6
2017-10-15T04:21:38.677Z,45.6
2017-10-15T04:22:47.374Z,45.7
2017-10-15T04:23:56.068Z,45.6
2017-10-15T04:25:04.764Z,45.79
2017-10-15T04:26:13.811Z,45.7
2017-10-15T04:27:23.509Z,45.7
2017-10-15T04:28:32.208Z,45.7
2017-10-15T04:29:40.907Z,45.79
2017-10-15T04:30:50.275Z,45.7
2017-10-15T04:31:59.305Z,45.79
2017-10-15T04:33:08.001Z,45.89
2017-10-15T04:34:17.028Z,45.31
2017-10-15T04:35:26.392Z,45.31
2017-10-15T04:36:36.088Z,45.79
2017-10-15T04:37:45.117Z,45.51
2017-10-15T04:38:54.476Z,45.31
2017-10-15T04:40:03.847Z,45.7
2017-10-15T04:41:12.891Z,45.7
2017-10-15T04:42:22.252Z,45.99
2017-10-15T04:43:31.624Z,45.41
2017-10-15T04:44:40.324Z,45.6
2017-10-15T04:45:49.350Z,45.31
2017-10-15T04:46:58.385Z,45.31
2017-10-15T04:48:07.412Z,45.51
2017-10-15T04:49:16.442Z,45.79
2017-10-15T04:50:25.470Z,45.6
2017-10-15T04:51:34.837Z,45.7
2017-10-15T04:52:43.867Z,45.89
2017-10-15T04:53:53.565Z,45.7
2017-10-15T04:55:02.926Z,45.89
2017-10-15T04:56:12.287Z,45.51
2017-10-15T04:57:20.985Z,45.79
2017-10-15T04:58:30.346Z,45.6
2017-10-15T04:59:39.044Z,45.6
2017-10-15T05:00:48.415Z,45.7
2017-10-15T05:01:57.769Z,45.31
2017-10-15T05:03:06.803Z,45.79
2017-10-15T05:04:16.170Z,45.7
2017-10-15T05:05:25.527Z,45.89
2017-10-15T05:06:34.561Z,45.7
2017-10-15T05:07:43.589Z,45.51
2017-10-15T05:08:52.954Z,45.79
2017-10-15T05:10:01.652Z,45.89
2017-10-15T05:11:11.690Z,45.89
2017-10-15T05:12:20.386Z,45.7
2017-10-15T05:13:29.413Z,45.79
2017-10-15T05:14:38.778Z,45.79
2017-10-15T05:15:47.852Z,45.51
2017-10-15T05:16:56.550Z,45.79
2017-10-15T05:18:05.581Z,45.79
2017-10-15T05:19:14.283Z,45.79
2017-10-15T05:20:23.321Z,45.89
2017-10-15T05:21:32.343Z,45.99
2017-10-15T05:22:41.378Z,45.51
2017-10-15T05:23:50.407Z,45.31
2017-10-15T05:24:59.769Z,45.6
2017-10-15T05:26:08.466Z,45.21
2017-10-15T05:27:17.496Z,45.31
2017-10-15T05:28:26.527Z,45.31
2017-10-15T05:29:35.892Z,45.21
2017-10-15T05:30:44.929Z,45.21
2017-10-15T05:31:54.291Z,45.41
2017-10-15T05:33:03.661Z,45.41
2017-10-15T05:34:13.021Z,45.31
2017-10-15T05:35:22.718Z,45.51
2017-10-15T05:36:31.747Z,45.89
2017-10-15T05:37:41.114Z,45.41
2017-10-15T05:38:49.811Z,45.89
2017-10-15T05:39:59.169Z,45.51
2017-10-15T05:41:08.864Z,45.79
2017-10-15T05:42:18.558Z,45.7
2017-10-15T05:43:27.917Z,45.79
2017-10-15T05:44:36.954Z,45.79
2017-10-15T05:45:46.339Z,45.89
2017-10-15T05:46:55.376Z,45.41
2017-10-15T05:48:04.407Z,45.31
2017-10-15T05:49:13.105Z,45.21
2017-10-15T05:50:22.131Z,45.21
2017-10-15T05:51:30.833Z,45.51
2017-10-15T05:52:39.864Z,45.21
2017-10-15T05:53:48.902Z,45.41
2017-10-15T05:54:58.925Z,45.21
2017-10-15T05:56:08.627Z,45.51
2017-10-15T05:57:17.319Z,45.41
2017-10-15T05:58:26.347Z,45.31
2017-10-15T05:59:35.722Z,45.31
2017-10-15T06:00:44.420Z,45.41
2017-10-15T06:01:53.447Z,45.31
2017-10-15T06:03:02.815Z,45.21
2017-10-15T06:04:11.853Z,45.31
2017-10-15T06:05:21.220Z,45.21
2017-10-15T06:06:30.581Z,45.6
2017-10-15T06:07:39.945Z,45.31
2017-10-15T06:08:49.322Z,45.51
2017-10-15T06:09:58.023Z,45.7
2017-10-15T06:11:07.722Z,45.89
2017-10-15T06:12:16.420Z,45.79
2017-10-15T06:13:25.777Z,45.7
2017-10-15T06:14:35.146Z,45.7
2017-10-15T06:15:44.850Z,45.89
2017-10-15T06:16:54.217Z,45.6
2017-10-15T06:18:02.917Z,45.51
2017-10-15T06:19:12.284Z,45.79
2017-10-15T06:20:21.643Z,45.51
2017-10-15T06:21:30.669Z,45.51
2017-10-15T06:22:39.701Z,45.79
2017-10-15T06:23:48.401Z,45.7
2017-10-15T06:24:58.099Z,45.7
2017-10-15T06:26:07.834Z,45.7
2017-10-15T06:27:17.209Z,45.6
2017-10-15T06:28:27.234Z,45.51
2017-10-15T06:29:36.597Z,45.79
2017-10-15T06:30:45.976Z,45.79
2017-10-15T06:31:55.666Z,45.7
2017-10-15T06:33:04.698Z,45.7
2017-10-15T06:34:14.061Z,45.6
2017-10-15T06:35:23.747Z,45.7
2017-10-15T06:36:32.451Z,45.51
2017-10-15T06:37:41.480Z,45.79
2017-10-15T06:38:50.847Z,45.7
2017-10-15T06:39:59.543Z,45.7
2017-10-15T06:41:09.241Z,45.79
2017-10-15T06:42:18.608Z,45.6
2017-10-15T06:43:27.748Z,45.51
2017-10-15T06:44:37.438Z,45.41
2017-10-15T06:45:46.804Z,45.79
2017-10-15T06:46:56.499Z,46.08
2017-10-15T06:48:05.865Z,46.18
2017-10-15T06:49:14.899Z,46.08
2017-10-15T06:50:23.597Z,45.99
2017-10-15T06:51:32.632Z,46.08
2017-10-15T06:52:41.665Z,46.08
2017-10-15T06:53:50.695Z,46.18
2017-10-15T06:55:00.061Z,45.99
2017-10-15T06:56:08.770Z,45.51
2017-10-15T06:57:17.799Z,45.89
2017-10-15T06:58:27.164Z,45.79
2017-10-15T06:59:36.193Z,45.79
2017-10-15T07:00:45.228Z,46.08
2017-10-15T07:01:54.258Z,45.99
2017-10-15T07:03:02.960Z,45.6
2017-10-15T07:04:11.658Z,45.7
2017-10-15T07:05:20.355Z,45.51
2017-10-15T07:06:29.713Z,45.6
2017-10-15T07:07:38.745Z,45.7
2017-10-15T07:08:47.781Z,45.79
2017-10-15T07:09:56.808Z,46.08
2017-10-15T07:11:05.507Z,45.89
2017-10-15T07:12:14.199Z,45.99
2017-10-15T07:13:23.564Z,46.08
2017-10-15T07:14:32.595Z,46.18
2017-10-15T07:15:41.625Z,45.79
2017-10-15T07:16:51.332Z,45.89
2017-10-15T07:18:00.697Z,45.04
2017-10-15T07:19:10.390Z,45.24
2017-10-15T07:20:19.417Z,44.95
2017-10-15T07:21:28.779Z,44.85
2017-10-15T07:22:37.810Z,44.85
2017-10-15T07:23:46.843Z,45.24
2017-10-15T07:24:56.211Z,45.04
2017-10-15T07:26:05.908Z,44.85
2017-10-15T07:27:14.940Z,44.66
2017-10-15T07:28:23.973Z,44.56
2017-10-15T07:29:32.673Z,44.49
2017-10-15T07:30:41.703Z,43.62
2017-10-15T07:31:50.401Z,42.87
2017-10-15T07:32:59.424Z,42.12
2017-10-15T07:34:09.124Z,40.4
2017-10-15T07:35:18.161Z,39.72
2017-10-15T07:36:27.872Z,39.55
2017-10-15T07:37:36.899Z,39.09
2017-10-15T07:38:45.599Z,38.79
2017-10-15T07:39:54.296Z,38.7
2017-10-15T07:41:03.329Z,39.37
2017-10-15T07:42:12.024Z,39.37
2017-10-15T07:43:21.406Z,39.86
2017-10-15T07:44:30.106Z,39.74
2017-10-15T07:45:39.817Z,40.13
2017-10-15T07:46:48.849Z,39.84
2017-10-15T07:47:58.224Z,39.74
2017-10-15T07:49:06.922Z,39.94
2017-10-15T07:50:16.292Z,40.61
2017-10-15T07:51:25.323Z,40.32
2017-10-15T07:52:34.357Z,40.32
2017-10-15T07:53:43.388Z,40.88
2017-10-15T07:54:52.427Z,41.09
2017-10-15T07:56:01.455Z,40.78
2017-10-15T07:57:10.830Z,41.08
2017-10-15T07:58:19.867Z,41.27
2017-10-15T07:59:29.231Z,40.98
2017-10-15T08:00:38.594Z,40.98
2017-10-15T08:01:47.625Z,41.36
2017-10-15T08:02:57.330Z,40.78
2017-10-15T08:04:06.363Z,41.75
2017-10-15T08:05:15.730Z,41.75
2017-10-15T08:06:25.100Z,41.36
2017-10-15T08:07:34.468Z,41.56
2017-10-15T08:08:43.167Z,41.56
2017-10-15T08:09:52.199Z,41.56
2017-10-15T08:11:01.229Z,41.58
2017-10-15T08:12:10.927Z,41.46
2017-10-15T08:13:20.291Z,41.29
2017-10-15T08:14:29.658Z,40.98
2017-10-15T08:15:38.692Z,40.9
2017-10-15T08:16:47.390Z,41.19
2017-10-15T08:17:56.424Z,41.39
2017-10-15T08:19:05.786Z,41.09
2017-10-15T08:20:14.820Z,41
2017-10-15T08:21:23.860Z,41.09
2017-10-15T08:22:33.232Z,40.9
2017-10-15T08:23:42.602Z,41.29
2017-10-15T08:24:51.970Z,41.19
2017-10-15T08:26:01.346Z,41.67
2017-10-15T08:27:10.373Z,41.48
2017-10-15T08:28:20.070Z,41.39
2017-10-15T08:29:29.432Z,41.19
2017-10-15T08:30:38.472Z,41
2017-10-15T08:31:47.171Z,41.29
2017-10-15T08:32:56.535Z,41.09
2017-10-15T08:34:05.899Z,40.81
2017-10-15T08:35:14.597Z,40.52
2017-10-15T08:36:23.960Z,41.29
2017-10-15T08:37:32.659Z,40.81
2017-10-15T08:38:41.358Z,40.42
2017-10-15T08:39:50.392Z,41.09
2017-10-15T08:40:59.426Z,40.34
2017-10-15T08:42:08.785Z,40.63
2017-10-15T08:43:18.494Z,40.71
2017-10-15T08:44:27.525Z,40.44
2017-10-15T08:45:37.891Z,40.32
2017-10-15T08:46:46.924Z,41.02
2017-10-15T08:47:55.958Z,40.63
2017-10-15T08:49:05.320Z,40.73
2017-10-15T08:50:14.354Z,40.73
2017-10-15T08:51:23.718Z,40.05
2017-10-15T08:52:32.749Z,39.95
2017-10-15T08:53:42.112Z,40.15
2017-10-15T08:54:51.474Z,40.15
2017-10-15T08:56:00.841Z,39.95
2017-10-15T08:57:10.533Z,39.86
2017-10-15T08:58:20.229Z,39.76
2017-10-15T08:59:29.258Z,39.76
2017-10-15T09:00:38.969Z,39.86
2017-10-15T09:01:48.660Z,39.39
2017-10-15T09:02:57.697Z,39.49
2017-10-15T09:04:07.072Z,39.2
2017-10-15T09:05:16.439Z,39.01
2017-10-15T09:06:26.134Z,38.81
2017-10-15T09:07:34.830Z,38.93
2017-10-15T09:08:43.528Z,38.54
2017-10-15T09:09:52.561Z,38.25
2017-10-15T09:11:01.930Z,37.96
2017-10-15T09:12:11.631Z,37.38
2017-10-15T09:13:21.004Z,37.79
2017-10-15T09:14:30.061Z,37.21
2017-10-15T09:15:39.090Z,36.82
2017-10-15T09:16:47.794Z,36.44
2017-10-15T09:17:57.164Z,36.44
2017-10-15T09:19:06.528Z,36.25
2017-10-15T09:20:16.557Z,35.49
2017-10-15T09:21:25.590Z,35.49
2017-10-15T09:22:34.955Z,35.01
2017-10-15T09:23:44.314Z,34.83
2017-10-15T09:24:53.014Z,34.74
2017-10-15T09:26:02.383Z,34.74
2017-10-15T09:27:11.084Z,34.36
2017-10-15T09:28:20.448Z,34.08
2017-10-15T09:29:29.816Z,33.98
2017-10-15T09:30:39.185Z,33.29
2017-10-15T09:31:48.226Z,33.12
2017-10-15T09:32:57.593Z,32.82
2017-10-15T09:34:06.294Z,32.55
2017-10-15T09:35:15.663Z,32.07
2017-10-15T09:36:25.042Z,31.87
2017-10-15T09:37:33.754Z,31.77
2017-10-15T09:38:43.792Z,31.98
2017-10-15T09:39:53.495Z,31.3
2017-10-15T09:41:02.855Z,30.83
2017-10-15T09:42:12.226Z,31.03
2017-10-15T09:43:21.259Z,30.83
2017-10-15T09:44:30.306Z,30.46
2017-10-15T09:45:39.345Z,29.88
2017-10-15T09:46:48.378Z,29.97
2017-10-15T09:47:57.417Z,30.08
2017-10-15T09:49:06.454Z,29.79
2017-10-15T09:50:15.163Z,29.6
2017-10-15T09:51:24.865Z,29.32
2017-10-15T09:52:33.572Z,29.03
2017-10-15T09:53:42.621Z,28.74
2017-10-15T09:54:51.989Z,28.65
2017-10-15T09:56:01.020Z,28.75
2017-10-15T09:57:10.391Z,28.45
2017-10-15T09:58:19.434Z,28.07
2017-10-15T09:59:28.813Z,27.78
2017-10-15T10:00:38.515Z,27.87
2017-10-15T10:01:47.546Z,27.69
2017-10-15T10:02:56.916Z,27.98
2017-10-15T10:04:06.949Z,27.59
2017-10-15T10:05:15.653Z,27.51
2017-10-15T10:06:24.687Z,27.51
2017-10-15T10:07:33.397Z,27.31
2017-10-15T10:08:42.118Z,27.22
2017-10-15T10:09:51.158Z,26.92
2017-10-15T10:11:00.524Z,26.84
2017-10-15T10:12:09.893Z,27.03
2017-10-15T10:13:18.933Z,26.93
2017-10-15T10:14:28.689Z,26.84
2017-10-15T10:15:37.403Z,27.03
2017-10-15T10:16:47.108Z,26.25
2017-10-15T10:17:56.486Z,26.45
2017-10-15T10:19:05.870Z,26.15
2017-10-15T10:20:14.918Z,26.06
2017-10-15T10:21:23.634Z,26.15
2017-10-15T10:22:32.676Z,25.86
2017-10-15T10:23:41.390Z,25.67
2017-10-15T10:24:50.097Z,25.96
2017-10-15T10:25:59.139Z,26.06
2017-10-15T10:27:08.180Z,26.46
2017-10-15T10:28:17.561Z,25.49
2017-10-15T10:29:26.942Z,26.07
2017-10-15T10:30:36.327Z,26.46
2017-10-15T10:31:45.698Z,25.98
2017-10-15T10:32:54.748Z,26.17
2017-10-15T10:34:03.787Z,26.17
2017-10-15T10:35:12.831Z,25.49
2017-10-15T10:36:21.880Z,25.49
2017-10-15T10:37:30.583Z,25.78
2017-10-15T10:38:39.618Z,25.49
2017-10-15T10:39:48.655Z,25.59
2017-10-15T10:40:58.026Z,25.68
2017-10-15T10:42:07.070Z,26.17
2017-10-15T10:43:16.111Z,25.78
2017-10-15T10:44:25.481Z,25.68
2017-10-15T10:45:34.857Z,25.29
2017-10-15T10:46:43.888Z,25.59
2017-10-15T10:47:52.919Z,24.8
2017-10-15T10:49:02.954Z,25.29
2017-10-15T10:50:12.657Z,25.2
2017-10-15T10:51:21.361Z,25.29
2017-10-15T10:52:30.396Z,24.81
2017-10-15T10:53:39.429Z,24.91
2017-10-15T10:54:48.795Z,24.52
2017-10-15T10:55:57.499Z,24.62
2017-10-15T10:57:07.198Z,25.01
2017-10-15T10:58:16.913Z,24.52
2017-10-15T10:59:25.948Z,24.62
2017-10-15T11:00:34.648Z,24.81
2017-10-15T11:01:43.683Z,24.71
2017-10-15T11:02:52.718Z,25.01
2017-10-15T11:04:02.085Z,24.43
2017-10-15T11:05:11.455Z,24.33
2017-10-15T11:06:20.498Z,24.43
2017-10-15T11:07:29.525Z,24.43
2017-10-15T11:08:38.562Z,23.85
2017-10-15T11:09:47.929Z,23.55
2017-10-15T11:10:57.302Z,24.33
2017-10-15T11:12:06.325Z,24.24
2017-10-15T11:13:15.692Z,23.85
2017-10-15T11:14:25.394Z,23.94
2017-10-15T11:15:34.426Z,23.94
2017-10-15T11:16:44.137Z,23.76
2017-10-15T11:17:53.168Z,23.76
2017-10-15T11:19:01.876Z,23.47
2017-10-15T11:20:11.246Z,23.86
2017-10-15T11:21:20.279Z,23.66
2017-10-15T11:22:29.313Z,23.66
2017-10-15T11:23:39.007Z,23.47
2017-10-15T11:24:48.395Z,23.66
2017-10-15T11:25:57.435Z,23.28
2017-10-15T11:27:06.464Z,23.38
2017-10-15T11:28:16.168Z,23.18
2017-10-15T11:29:24.877Z,23.57
2017-10-15T11:30:34.250Z,23.47
2017-10-15T11:31:43.616Z,23.37
2017-10-15T11:32:52.986Z,23.18
2017-10-15T11:34:02.030Z,23.37
2017-10-15T11:35:11.397Z,23.37
2017-10-15T11:36:20.427Z,23.27
2017-10-15T11:37:29.464Z,23.27
2017-10-15T11:38:38.502Z,23.28
2017-10-15T11:39:47.209Z,23.57
2017-10-15T11:40:56.915Z,23.27
2017-10-15T11:42:05.951Z,23.47
2017-10-15T11:43:14.986Z,23.57
2017-10-15T11:44:24.685Z,24.15
2017-10-15T11:45:34.053Z,24.33
2017-10-15T11:46:43.090Z,24.92
2017-10-15T11:47:51.791Z,25.11
2017-10-15T11:49:01.162Z,24.9
2017-10-15T11:50:10.530Z,25.88
2017-10-15T11:51:19.562Z,25.96
2017-10-15T11:52:29.919Z,26.54
2017-10-15T11:53:39.621Z,26.04
2017-10-15T11:54:48.323Z,27.12
2017-10-15T11:55:57.024Z,26.91
2017-10-15T11:57:06.069Z,27.2
2017-10-15T11:58:14.775Z,27.5
2017-10-15T11:59:23.809Z,27.58
2017-10-15T12:00:32.842Z,27.87
2017-10-15T12:01:41.883Z,28.15
2017-10-15T12:02:51.256Z,28.05
2017-10-15T12:04:00.624Z,28.34
2017-10-15T12:05:10.660Z,28.44
2017-10-15T12:06:19.359Z,28.82
2017-10-15T12:07:28.723Z,29.02
2017-10-15T12:08:38.099Z,28.72
2017-10-15T12:09:47.475Z,29.11
2017-10-15T12:10:57.509Z,29.6
2017-10-15T12:12:06.216Z,29.4
2017-10-15T12:13:15.600Z,29.68
2017-10-15T12:14:24.634Z,29.39
2017-10-15T12:15:33.673Z,29.97
2017-10-15T12:16:43.047Z,29.88
2017-10-15T12:17:52.081Z,29.97
2017-10-15T12:19:01.451Z,30.46
2017-10-15T12:20:10.504Z,29.78
2017-10-15T12:21:19.207Z,29.96
2017-10-15T12:22:28.575Z,30.44
2017-10-15T12:23:37.277Z,30.74
2017-10-15T12:24:46.312Z,30.64
2017-10-15T12:25:55.361Z,30.83
2017-10-15T12:27:04.394Z,30.64
2017-10-15T12:28:13.098Z,30.82
2017-10-15T12:29:21.795Z,31.4
2017-10-15T12:30:31.159Z,31.11
2017-10-15T12:31:40.853Z,31.11
2017-10-15T12:32:50.215Z,31.3
2017-10-15T12:33:58.917Z,31.3
2017-10-15T12:35:07.952Z,31.38
2017-10-15T12:36:16.986Z,31.48
2017-10-15T12:37:26.681Z,31.68
2017-10-15T12:38:36.051Z,31.68
2017-10-15T12:39:45.086Z,31.68
2017-10-15T12:40:53.788Z,31.97
2017-10-15T12:42:03.494Z,32.17
2017-10-15T12:43:12.524Z,32.17
2017-10-15T12:44:21.555Z,32.17
2017-10-15T12:45:31.256Z,32.26
2017-10-15T12:46:40.625Z,31.97
2017-10-15T12:47:50.316Z,31.97
2017-10-15T12:48:59.351Z,32.55
2017-10-15T12:50:08.052Z,32.54
2017-10-15T12:51:17.754Z,32.73
2017-10-15T12:52:27.458Z,32.15
2017-10-15T12:53:36.492Z,32.54
2017-10-15T12:54:45.192Z,32.64
2017-10-15T12:55:54.226Z,32.64
2017-10-15T12:57:03.264Z,32.92
2017-10-15T12:58:12.295Z,33.02
2017-10-15T12:59:21.003Z,33.02
2017-10-15T13:00:30.710Z,33.12
2017-10-15T13:01:39.744Z,33.31
2017-10-15T13:02:49.108Z,33.31
2017-10-15T13:03:58.475Z,33.22
2017-10-15T13:05:07.856Z,33.01
2017-10-15T13:06:17.135Z,33.11
2017-10-15T13:07:25.834Z,33.2
2017-10-15T13:08:35.201Z,33.2
2017-10-15T13:09:44.234Z,33.29
2017-10-15T13:10:54.268Z,33.59
2017-10-15T13:12:03.301Z,33.49
2017-10-15T13:13:12.347Z,33.59
2017-10-15T13:14:21.719Z,33.59
2017-10-15T13:15:30.423Z,33.78
2017-10-15T13:16:39.131Z,33.59
2017-10-15T13:17:48.276Z,33.39
2017-10-15T13:18:57.315Z,33.59
2017-10-15T13:20:06.354Z,33.69
2017-10-15T13:21:15.057Z,33.76
2017-10-15T13:22:24.100Z,33.86
2017-10-15T13:23:33.801Z,33.88
2017-10-15T13:24:43.505Z,33.47
2017-10-15T13:25:52.870Z,33.76
2017-10-15T13:27:01.907Z,33.76
2017-10-15T13:28:11.273Z,33.96
2017-10-15T13:29:19.970Z,34.06
2017-10-15T13:30:28.670Z,33.47
2017-10-15T13:31:38.035Z,33.38
2017-10-15T13:32:47.395Z,33.57
2017-10-15T13:33:56.425Z,33.47
2017-10-15T13:35:05.456Z,33.76
2017-10-15T13:36:14.495Z,34.06
2017-10-15T13:37:23.202Z,33.76
2017-10-15T13:38:32.227Z,33.96
2017-10-15T13:39:40.924Z,34.25
2017-10-15T13:40:49.623Z,34.06
2017-10-15T13:41:58.988Z,34.23
2017-10-15T13:43:07.688Z,34.33
2017-10-15T13:44:17.061Z,34.33
2017-10-15T13:45:26.430Z,34.43
2017-10-15T13:46:35.132Z,34.53
2017-10-15T13:47:44.512Z,34.53
2017-10-15T13:48:53.874Z,34.43
2017-10-15T13:50:03.243Z,34.72
2017-10-15T13:51:12.620Z,34.43
2017-10-15T13:52:21.980Z,34.43
2017-10-15T13:53:31.034Z,34.81
2017-10-15T13:54:40.403Z,34.62
2017-10-15T13:55:49.432Z,34.62
2017-10-15T13:56:58.141Z,34.72
2017-10-15T13:58:07.842Z,35.01
2017-10-15T13:59:17.214Z,34.43
2017-10-15T14:00:26.243Z,34.53
2017-10-15T14:01:34.942Z,34.43
2017-10-15T14:02:44.012Z,34.72
2017-10-15T14:03:52.713Z,35.21
2017-10-15T14:05:02.087Z,34.81
2017-10-15T14:06:11.449Z,34.7
2017-10-15T14:07:21.142Z,35.19
2017-10-15T14:08:30.182Z,35.09
2017-10-15T14:09:39.209Z,35.19
2017-10-15T14:10:48.239Z,35.48
2017-10-15T14:11:57.273Z,35.09
2017-10-15T14:13:05.973Z,35.28
2017-10-15T14:14:15.007Z,35.28
2017-10-15T14:15:24.046Z,35.28
2017-10-15T14:16:33.076Z,35.48
2017-10-15T14:17:42.438Z,35.77
2017-10-15T14:18:51.472Z,35.77
2017-10-15T14:20:00.179Z,35.96
2017-10-15T14:21:09.540Z,35.86
2017-10-15T14:22:18.243Z,35.86
2017-10-15T14:23:27.277Z,35.96
2017-10-15T14:24:36.310Z,35.67
2017-10-15T14:25:46.029Z,35.94
2017-10-15T14:26:55.075Z,36.06
2017-10-15T14:28:04.109Z,35.75
2017-10-15T14:29:13.479Z,35.75
2017-10-15T14:30:22.513Z,35.66
2017-10-15T14:31:31.881Z,36.33
2017-10-15T14:32:40.909Z,36.04
2017-10-15T14:33:49.944Z,36.33
2017-10-15T14:34:59.317Z,36.33
2017-10-15T14:36:08.352Z,36.14
2017-10-15T14:37:17.387Z,36.14
2017-10-15T14:38:26.421Z,36.14
2017-10-15T14:39:35.786Z,36.24
2017-10-15T14:40:44.814Z,36.24
2017-10-15T14:41:53.515Z,35.94
2017-10-15T14:43:02.882Z,36.33
2017-10-15T14:44:11.913Z,36.43
2017-10-15T14:45:20.960Z,36.24
2017-10-15T14:46:30.660Z,36.24
2017-10-15T14:47:39.360Z,36.33
2017-10-15T14:48:48.398Z,36.43
2017-10-15T14:49:57.432Z,36.62
2017-10-15T14:51:06.806Z,36.82
2017-10-15T14:52:16.168Z,36.24
2017-10-15T14:53:25.207Z,36.82
2017-10-15T14:54:34.240Z,36.62
2017-10-15T14:55:43.273Z,36.72